Atalanti — 5BYY2 — position and weather

sailwx.info

Track history (hours):
 
Tides and Currents Weather Stations Pressure Air Temp Water Temp Dewpoint Dewpoint Depression Visibility Wind Speed Wind Dir Waves Ship Positions

Atalanti

Last reported at 2016-Aug-31 03:23 UTC. Time now 2016-Aug-31 23:31 UTC.
Position N 40°42' E 014°08'.

Length 97 m; draft 3.6 m.

Type: Other ship. MMSI: 212279000.

Date/timePositionNaut miles runAvg speedWind from/ knotsBaromVisibWave heightAir tempDewpointWater temp
2016-Aug-31 03:23N 40°42' E 014°08'7 3.7
2016-Aug-31 01:31N 40°38' E 014°01'6 6.3
2016-Aug-31 00:33N 40°35' E 013°54'6 6.4
2016-Aug-30 23:33N 40°33' E 013°46'7 6.4
2016-Aug-30 22:30N 40°30' E 013°38'9 6.3
2016-Aug-30 21:03N 40°26' E 013°27'111 6.0
2016-Aug-30 02:33N 40°01' E 011°05'7 6.5
2016-Aug-30 01:30N 39°59' E 010°56'6 6.7
2016-Aug-30 00:33N 39°58' E 010°48'7 6.6
2016-Aug-29 23:33N 39°56' E 010°40'7 6.5
2016-Aug-29 22:33N 39°55' E 010°32'47 6.6
2016-Aug-29 15:29N 39°15' E 009°59'7 7.1
2016-Aug-29 14:32N 39°09' E 009°55'7 7.0
2016-Aug-29 13:33N 39°04' E 009°49'7 7.0
2016-Aug-29 12:33N 39°01' E 009°40'14 7.2
2016-Aug-29 10:33N 38°56' E 009°23'8 7.7
2016-Aug-29 09:33N 38°54' E 009°14'260 8.1
2016-Aug-28 01:32N 39°03' E 003°39'9 8.8
2016-Aug-28 00:32N 39°03' E 003°28'10 8.7
2016-Aug-27 23:26N 39°03' E 003°15'10 8.8
2016-Aug-27 22:21N 39°04' E 003°03'8 8.7
2016-Aug-27 21:22N 39°06' E 002°53'7 8.8
2016-Aug-27 20:33N 39°12' E 002°48'9 8.8
2016-Aug-27 19:33N 39°20' E 002°43'9 8.7
2016-Aug-27 18:33N 39°28' E 002°39'3 2.8
2016-Aug-27 17:33N 39°31' E 002°40'3 3.2
2016-Aug-27 16:33N 39°34' E 002°38'0 0.0
2016-Aug-27 15:31N 39°34' E 002°38'0 0.0
2016-Aug-27 14:31N 39°34' E 002°38'0 0.0
2016-Aug-27 13:31N 39°34' E 002°38'0 0.0
2016-Aug-27 12:31N 39°34' E 002°38'0 0.0
2016-Aug-27 11:31N 39°34' E 002°38'0 0.0
2016-Aug-27 10:31N 39°34' E 002°38'0 0.0
2016-Aug-27 09:31N 39°34' E 002°38'0 0.0
2016-Aug-27 08:31N 39°34' E 002°38'0 0.3
2016-Aug-27 07:33N 39°33' E 002°38'7 6.4
2016-Aug-27 06:25N 39°26' E 002°36'12 6.6
2016-Aug-27 04:33N 39°19' E 002°24'8 8.2
2016-Aug-27 03:33N 39°14' E 002°15'6 5.7
2016-Aug-27 02:33N 39°08' E 002°18'7 7.5
2016-Aug-27 01:33N 39°06' E 002°27'7 7.2
2016-Aug-27 00:33N 39°04' E 002°36'7 7.0
2016-Aug-26 23:33N 39°02' E 002°44'7 6.9
2016-Aug-26 22:33N 38°60' E 002°53'6 6.4
2016-Aug-26 21:33N 39°01' E 003°01'8 7.2
2016-Aug-26 20:29N 39°08' E 003°07'6 6.7
2016-Aug-26 19:33N 39°13' E 003°11'8 7.0
2016-Aug-26 18:28N 39°19' E 003°17'7 6.9
2016-Aug-26 17:31N 39°24' E 003°22'7 7.2
2016-Aug-26 16:33N 39°30' E 003°27'15 7.3
2016-Aug-26 14:27N 39°43' E 003°38'7 7.3
2016-Aug-26 13:32N 39°48' E 003°44'9 4.4
2016-Aug-26 11:32N 39°55' E 003°50'0 0.0
2016-Aug-25 16:06N 39°55' E 003°50'0 0.0
2016-Aug-25 14:19N 39°55' E 003°50'0 0.0
2016-Aug-25 12:10N 39°55' E 003°50'0 0.0
2016-Aug-23 23:33N 39°55' E 003°50'0 0.0
2016-Aug-23 22:33N 39°55' E 003°50'0 0.0
2016-Aug-23 20:33N 39°55' E 003°50'0 0.0
2016-Aug-23 14:22N 39°55' E 003°50'0 0.0
2016-Aug-23 13:18N 39°55' E 003°50'0 0.0
2016-Aug-22 04:32N 39°55' E 003°50'  
Track history (hours):
 
Tides and Currents Weather Stations Pressure Air Temp Water Temp Dewpoint Dewpoint Depression Visibility Wind Speed Wind Dir Waves Ship Positions

Atalanti

Last reported at 2016-Aug-31 03:23 UTC. Time now 2016-Aug-31 23:31 UTC.
Position N 40°42' E 014°08'.

Length 97 m; draft 3.6 m.

Type: Other ship. MMSI: 212279000.

Date/timePositionNaut miles runAvg speedWind from/ knotsBaromVisibWave heightAir tempDewpointWater temp
2016-Aug-31 03:23N 40°42' E 014°08'7 3.7
2016-Aug-31 01:31N 40°38' E 014°01'6 6.3
2016-Aug-31 00:33N 40°35' E 013°54'6 6.4
2016-Aug-30 23:33N 40°33' E 013°46'7 6.4
2016-Aug-30 22:30N 40°30' E 013°38'9 6.3
2016-Aug-30 21:03N 40°26' E 013°27'111 6.0
2016-Aug-30 02:33N 40°01' E 011°05'7 6.5
2016-Aug-30 01:30N 39°59' E 010°56'6 6.7
2016-Aug-30 00:33N 39°58' E 010°48'7 6.6
2016-Aug-29 23:33N 39°56' E 010°40'7 6.5
2016-Aug-29 22:33N 39°55' E 010°32'47 6.6
2016-Aug-29 15:29N 39°15' E 009°59'7 7.1
2016-Aug-29 14:32N 39°09' E 009°55'7 7.0
2016-Aug-29 13:33N 39°04' E 009°49'7 7.0
2016-Aug-29 12:33N 39°01' E 009°40'14 7.2
2016-Aug-29 10:33N 38°56' E 009°23'8 7.7
2016-Aug-29 09:33N 38°54' E 009°14'260 8.1
2016-Aug-28 01:32N 39°03' E 003°39'9 8.8
2016-Aug-28 00:32N 39°03' E 003°28'10 8.7
2016-Aug-27 23:26N 39°03' E 003°15'10 8.8
2016-Aug-27 22:21N 39°04' E 003°03'8 8.7
2016-Aug-27 21:22N 39°06' E 002°53'7 8.8
2016-Aug-27 20:33N 39°12' E 002°48'9 8.8
2016-Aug-27 19:33N 39°20' E 002°43'9 8.7
2016-Aug-27 18:33N 39°28' E 002°39'3 2.8
2016-Aug-27 17:33N 39°31' E 002°40'3 3.2
2016-Aug-27 16:33N 39°34' E 002°38'0 0.0
2016-Aug-27 15:31N 39°34' E 002°38'0 0.0
2016-Aug-27 14:31N 39°34' E 002°38'0 0.0
2016-Aug-27 13:31N 39°34' E 002°38'0 0.0
2016-Aug-27 12:31N 39°34' E 002°38'0 0.0
2016-Aug-27 11:31N 39°34' E 002°38'0 0.0
2016-Aug-27 10:31N 39°34' E 002°38'0 0.0
2016-Aug-27 09:31N 39°34' E 002°38'0 0.0
2016-Aug-27 08:31N 39°34' E 002°38'0 0.3
2016-Aug-27 07:33N 39°33' E 002°38'7 6.4
2016-Aug-27 06:25N 39°26' E 002°36'12 6.6
2016-Aug-27 04:33N 39°19' E 002°24'8 8.2
2016-Aug-27 03:33N 39°14' E 002°15'6 5.7
2016-Aug-27 02:33N 39°08' E 002°18'7 7.5
2016-Aug-27 01:33N 39°06' E 002°27'7 7.2
2016-Aug-27 00:33N 39°04' E 002°36'7 7.0
2016-Aug-26 23:33N 39°02' E 002°44'7 6.9
2016-Aug-26 22:33N 38°60' E 002°53'6 6.4
2016-Aug-26 21:33N 39°01' E 003°01'8 7.2
2016-Aug-26 20:29N 39°08' E 003°07'6 6.7
2016-Aug-26 19:33N 39°13' E 003°11'8 7.0
2016-Aug-26 18:28N 39°19' E 003°17'7 6.9
2016-Aug-26 17:31N 39°24' E 003°22'7 7.2
2016-Aug-26 16:33N 39°30' E 003°27'15 7.3
2016-Aug-26 14:27N 39°43' E 003°38'7 7.3
2016-Aug-26 13:32N 39°48' E 003°44'9 4.4
2016-Aug-26 11:32N 39°55' E 003°50'0 0.0
2016-Aug-25 16:06N 39°55' E 003°50'0 0.0
2016-Aug-25 14:19N 39°55' E 003°50'0 0.0
2016-Aug-25 12:10N 39°55' E 003°50'0 0.0
2016-Aug-23 23:33N 39°55' E 003°50'0 0.0
2016-Aug-23 22:33N 39°55' E 003°50'0 0.0
2016-Aug-23 20:33N 39°55' E 003°50'0 0.0
2016-Aug-23 14:22N 39°55' E 003°50'0 0.0
2016-Aug-23 13:18N 39°55' E 003°50'0 0.0
2016-Aug-22 04:32N 39°55' E 003°50'  

Dump ship's entire track history